< Cyclone 199106 1991 Season Cyclone 199108 >
Cyclone 199107 (ERROL)
General InformationTrack Information on Google MapsDetailed Wind InformationList of All Images || ResourceGoogle EarthGE AnimationAtom FeedGeoJSON
Detalied Best Track (Time Zone = UTC)
Year Month Day Hour Lat. Long. Pressure (hPa) Wind (kt) Class Image Chart
1991 3 23 12 -10.9 99.6 1000 31 2 Image --
1991 3 23 18 -10.9 99.6 998 35 3 Image --
1991 3 24 00 -10.9 99.5 996 37 3 Image --
1991 3 24 06 -10.9 99.5 993 41 3 Image --
1991 3 24 12 -10.7 99.0 988 49 4 Image --
1991 3 24 18 -10.6 99.0 982 58 4 Image --
1991 3 25 00 -10.4 99.0 976 66 5 Image --
1991 3 25 06 -10.5 99.4 970 74 5 Image --
1991 3 25 12 -10.5 99.7 965 80 5 Image --
1991 3 25 18 -10.5 100.0 960 84 5 Image --
1991 3 26 00 -10.5 100.5 955 89 5 Image --
1991 3 26 06 -11.1 100.6 950 95 5 Image --
1991 3 26 12 -11.9 101.1 955 89 5 Image --
1991 3 26 18 -12.0 101.3 955 89 5 Image --
1991 3 27 00 -12.1 101.5 955 89 5 Image --
1991 3 27 06 -12.6 101.6 960 84 5 Image --
1991 3 27 12 -13.3 101.7 965 80 5 Image --
1991 3 27 18 -13.4 101.8 970 74 5 Image --
1991 3 28 00 -13.6 101.8 975 66 5 Image --
1991 3 28 06 -14.0 100.9 975 66 5 Image --
1991 3 28 12 -14.2 100.1 975 66 5 Image --
1991 3 28 18 -14.4 99.3 978 64 5 Image --
1991 3 29 00 -14.8 98.4 980 60 4 Image --
1991 3 29 06 -15.4 97.4 985 54 4 Image --
1991 3 29 12 -15.7 96.5 990 47 3 Image --
1991 3 29 18 -16.0 95.5 993 41 3 Image --
1991 3 30 00 -16.2 94.5 996 37 3 Image --
1991 3 30 06 -16.4 93.8 1000 31 2 Image --
1991 3 30 12 -16.7 93.4 1000 31 2 Image --
1991 3 30 18 -16.9 93.1 1002 27 2 Image --
1991 3 31 00 -17.1 92.8 1003 27 2 Image --
1991 3 31 06 -17.3 92.6 1004 25 2 Image --
< Cyclone 199106 1991 Season Cyclone 199108 >

Help